createdAt,value
2022-10-17T00:01:15.151Z,15.40
2022-10-17T00:03:44.667Z,15.50
2022-10-17T00:06:14.850Z,15.50
2022-10-17T00:08:43.080Z,15.40
2022-10-17T00:11:16.769Z,15.40
2022-10-17T00:13:44.418Z,15.40
2022-10-17T00:16:11.907Z,15.40
2022-10-17T00:18:39.151Z,15.40
2022-10-17T00:21:06.608Z,15.50
2022-10-17T00:23:35.807Z,15.50
2022-10-17T00:26:05.636Z,15.50
2022-10-17T00:28:35.115Z,15.50
2022-10-17T00:31:06.339Z,15.40
2022-10-17T00:33:35.558Z,15.50
2022-10-17T00:36:07.325Z,15.50
2022-10-17T00:38:37.710Z,15.50
2022-10-17T00:41:05.849Z,15.50
2022-10-17T00:44:02.852Z,15.50
2022-10-17T00:46:36.192Z,15.50
2022-10-17T00:49:08.426Z,15.50
2022-10-17T00:51:46.471Z,15.60
2022-10-17T00:54:19.187Z,15.60
2022-10-17T00:56:48.290Z,15.50
2022-10-17T00:59:17.687Z,15.50
2022-10-17T01:01:52.552Z,15.50
2022-10-17T01:04:20.171Z,15.50
2022-10-17T01:06:47.427Z,15.50
2022-10-17T01:09:14.489Z,15.50
2022-10-17T01:12:04.355Z,15.60
2022-10-17T01:14:55.396Z,15.60
2022-10-17T01:17:55.045Z,15.50
2022-10-17T01:20:55.519Z,15.50
2022-10-17T01:23:49.375Z,15.50
2022-10-17T01:26:40.088Z,15.40
2022-10-17T01:29:26.437Z,15.50
2022-10-17T01:31:58.565Z,15.50
2022-10-17T01:34:35.255Z,15.50
2022-10-17T01:37:21.377Z,15.40
2022-10-17T01:39:55.862Z,15.40
2022-10-17T01:43:17.007Z,15.30
2022-10-17T01:45:54.942Z,15.30
2022-10-17T01:48:25.429Z,15.20
2022-10-17T01:51:01.969Z,15.20
2022-10-17T01:53:33.927Z,15.20
2022-10-17T01:56:05.264Z,15.10
2022-10-17T01:58:37.746Z,15.10
2022-10-17T02:01:08.513Z,15.10
2022-10-17T02:03:36.137Z,15.10
2022-10-17T02:06:03.617Z,15.10
2022-10-17T02:08:46.173Z,15.10
2022-10-17T02:11:24.738Z,15.00
2022-10-17T02:14:18.507Z,15.00
2022-10-17T02:16:48.528Z,14.90
2022-10-17T02:19:46.215Z,14.90
2022-10-17T02:22:39.662Z,14.80
2022-10-17T02:25:18.171Z,14.80
2022-10-17T02:28:17.679Z,14.80
2022-10-17T02:30:56.254Z,14.70
2022-10-17T02:33:56.505Z,14.70
2022-10-17T02:36:28.320Z,14.70
2022-10-17T02:38:56.464Z,14.70
2022-10-17T02:41:27.054Z,14.70
2022-10-17T02:43:57.628Z,14.70
2022-10-17T02:46:28.926Z,14.70
2022-10-17T02:49:16.209Z,14.70
2022-10-17T02:51:59.312Z,14.70
2022-10-17T02:54:56.958Z,14.70
2022-10-17T02:57:51.180Z,14.70
2022-10-17T03:03:30.818Z,14.60
2022-10-17T03:06:00.493Z,14.70
2022-10-17T03:08:27.913Z,14.70
2022-10-17T03:10:55.328Z,14.70
2022-10-17T03:13:24.875Z,14.80
2022-10-17T03:15:52.222Z,14.80
2022-10-17T03:18:19.330Z,14.80
2022-10-17T03:20:46.752Z,14.90
2022-10-17T03:23:16.431Z,14.90
2022-10-17T03:25:43.864Z,15.00
2022-10-17T03:28:11.854Z,15.10
2022-10-17T03:30:39.370Z,15.10
2022-10-17T03:33:06.668Z,15.10
2022-10-17T03:35:38.920Z,15.10
2022-10-17T03:38:06.138Z,15.10
2022-10-17T03:40:33.446Z,15.10
2022-10-17T03:43:00.560Z,15.00
2022-10-17T03:45:27.894Z,15.10
2022-10-17T03:47:58.339Z,15.10
2022-10-17T03:50:25.978Z,15.00
2022-10-17T03:52:53.127Z,15.00
2022-10-17T03:55:20.474Z,15.00
2022-10-17T03:57:47.656Z,15.00
2022-10-17T04:00:15.318Z,14.90
2022-10-17T04:02:42.724Z,15.00
2022-10-17T04:05:10.131Z,15.00
2022-10-17T04:07:37.318Z,15.00
2022-10-17T04:10:05.699Z,14.90
2022-10-17T04:12:32.944Z,14.90
2022-10-17T04:15:02.486Z,14.90
2022-10-17T04:17:35.752Z,14.80
2022-10-17T04:20:06.280Z,14.80
2022-10-17T04:22:35.838Z,14.70
2022-10-17T04:25:03.146Z,14.70
2022-10-17T04:27:30.350Z,14.70
2022-10-17T04:29:57.704Z,14.70
2022-10-17T04:32:24.798Z,14.60
2022-10-17T04:34:52.245Z,14.60
2022-10-17T04:37:19.850Z,14.60
2022-10-17T04:39:47.156Z,14.70
2022-10-17T04:42:16.585Z,14.60
2022-10-17T04:44:43.866Z,14.70
2022-10-17T04:47:11.141Z,14.70
2022-10-17T04:49:38.911Z,14.60
2022-10-17T04:52:06.026Z,14.70
2022-10-17T04:54:33.212Z,14.70
2022-10-17T04:57:05.054Z,14.60
2022-10-17T04:59:32.650Z,14.70
2022-10-17T05:02:02.156Z,14.70
2022-10-17T05:04:31.606Z,14.70
2022-10-17T05:07:01.118Z,14.80
2022-10-17T05:09:28.788Z,14.80
2022-10-17T05:11:55.987Z,14.80
2022-10-17T05:14:23.364Z,14.80
2022-10-17T05:16:50.457Z,14.80
2022-10-17T05:19:18.064Z,14.90
2022-10-17T05:21:47.552Z,15.00
2022-10-17T05:24:15.405Z,15.00
2022-10-17T05:26:42.636Z,15.00
2022-10-17T05:29:10.280Z,15.00
2022-10-17T05:31:37.687Z,15.00
2022-10-17T05:34:07.066Z,15.10
2022-10-17T05:36:41.096Z,15.10
2022-10-17T05:39:12.618Z,15.20
2022-10-17T05:41:39.673Z,15.20
2022-10-17T05:44:09.322Z,15.40
2022-10-17T05:46:36.558Z,15.50
2022-10-17T05:49:14.659Z,15.70
2022-10-17T05:51:53.394Z,15.90
2022-10-17T05:54:20.600Z,16.30
2022-10-17T05:56:55.298Z,17.10
2022-10-17T05:59:24.392Z,18.00
2022-10-17T06:01:54.702Z,18.90
2022-10-17T06:04:24.760Z,20.00
2022-10-17T06:06:52.120Z,21.30
2022-10-17T06:09:22.331Z,22.50
2022-10-17T06:11:51.811Z,23.50
2022-10-17T06:14:21.398Z,24.60
2022-10-17T06:16:50.894Z,25.30
2022-10-17T06:19:18.550Z,26.00
2022-10-17T06:21:45.872Z,25.70
2022-10-17T06:24:13.350Z,25.90
2022-10-17T06:26:40.487Z,25.70
2022-10-17T06:29:08.517Z,25.90
2022-10-17T06:31:38.490Z,26.70
2022-10-17T06:34:05.940Z,27.40
2022-10-17T06:36:33.168Z,28.10
2022-10-17T06:39:00.519Z,28.80
2022-10-17T06:41:27.773Z,29.40
2022-10-17T06:43:55.262Z,30.10
2022-10-17T06:46:22.255Z,31.50
2022-10-17T06:48:52.163Z,31.90
2022-10-17T06:51:19.389Z,33.50
2022-10-17T06:53:46.865Z,34.30
2022-10-17T06:56:14.125Z,35.10
2022-10-17T06:58:41.555Z,36.00
2022-10-17T07:01:11.722Z,37.00
2022-10-17T07:03:40.346Z,38.20
2022-10-17T07:06:08.111Z,38.60
2022-10-17T07:08:35.501Z,39.00
2022-10-17T07:11:13.671Z,38.70
2022-10-17T07:13:41.143Z,38.50
2022-10-17T07:16:11.787Z,39.40
2022-10-17T07:18:42.271Z,40.00
2022-10-17T07:21:11.619Z,40.80
2022-10-17T07:23:38.810Z,41.10
2022-10-17T07:26:13.226Z,40.50
2022-10-17T07:28:43.108Z,40.60
2022-10-17T07:31:16.595Z,41.10
2022-10-17T07:36:21.329Z,43.70
2022-10-17T07:38:51.000Z,43.10
2022-10-17T07:41:20.922Z,44.00
2022-10-17T07:43:50.194Z,44.40
2022-10-17T07:46:19.623Z,44.50
2022-10-17T07:48:46.913Z,45.00
2022-10-17T07:51:14.173Z,45.10
2022-10-17T07:53:46.434Z,44.50
2022-10-17T07:56:16.333Z,44.50
2022-10-17T07:58:46.361Z,44.40
2022-10-17T08:01:15.322Z,45.20
2022-10-17T08:03:49.159Z,45.80
2022-10-17T08:06:16.634Z,45.20
2022-10-17T08:08:46.452Z,44.40
2022-10-17T08:11:15.121Z,44.50
2022-10-17T08:13:45.207Z,42.60
2022-10-17T08:16:13.635Z,42.20
2022-10-17T08:18:42.784Z,40.10
2022-10-17T08:21:13.266Z,39.10
2022-10-17T08:23:43.921Z,38.90
2022-10-17T08:26:12.202Z,36.60
2022-10-17T08:28:40.513Z,36.50
2022-10-17T08:31:10.420Z,37.30
2022-10-17T08:33:38.219Z,36.70
2022-10-17T08:36:06.774Z,36.10
2022-10-17T08:38:36.357Z,36.90
2022-10-17T08:41:11.989Z,39.30
2022-10-17T08:44:14.173Z,39.10
2022-10-17T08:46:44.891Z,39.10
2022-10-17T08:49:46.991Z,38.30
2022-10-17T08:52:28.533Z,37.30
2022-10-17T08:54:56.089Z,37.00
2022-10-17T08:57:26.104Z,36.20
2022-10-17T08:59:56.013Z,36.90
2022-10-17T09:02:37.849Z,38.10
2022-10-17T09:05:33.301Z,38.70
2022-10-17T09:08:16.700Z,39.90
2022-10-17T09:10:49.906Z,40.70
2022-10-17T09:13:45.279Z,41.00
2022-10-17T09:16:35.093Z,41.40
2022-10-17T09:19:31.725Z,42.10
2022-10-17T09:22:04.376Z,42.90
2022-10-17T09:24:50.465Z,42.20
2022-10-17T09:27:43.132Z,41.20
2022-10-17T09:30:44.056Z,41.10
2022-10-17T09:33:23.151Z,38.70
2022-10-17T09:36:00.289Z,38.30
2022-10-17T09:38:38.166Z,37.90
2022-10-17T09:41:39.157Z,37.40
2022-10-17T09:44:18.108Z,36.60
2022-10-17T09:47:04.225Z,35.90
2022-10-17T09:49:50.451Z,35.30
2022-10-17T09:52:37.856Z,34.70
2022-10-17T09:55:16.757Z,35.30
2022-10-17T09:57:52.538Z,35.70
2022-10-17T10:00:33.923Z,36.10
2022-10-17T10:03:24.801Z,36.70
2022-10-17T10:06:05.656Z,36.90
2022-10-17T10:08:55.452Z,35.60
2022-10-17T10:11:44.090Z,33.80
2022-10-17T10:14:22.684Z,32.30
2022-10-17T10:16:52.380Z,32.60
2022-10-17T10:19:30.266Z,32.70
2022-10-17T10:22:03.944Z,32.80
2022-10-17T10:24:33.361Z,32.20
2022-10-17T10:27:05.037Z,32.40
2022-10-17T10:29:52.340Z,32.50
2022-10-17T10:32:22.468Z,33.10
2022-10-17T10:34:58.720Z,33.00
2022-10-17T10:37:33.962Z,33.10
2022-10-17T10:40:06.718Z,32.40
2022-10-17T10:42:40.388Z,31.80
2022-10-17T10:45:29.220Z,32.40
2022-10-17T10:48:17.786Z,32.10
2022-10-17T10:51:07.997Z,32.30
2022-10-17T10:53:44.520Z,32.00
2022-10-17T10:56:29.841Z,32.20
2022-10-17T10:59:18.823Z,31.80
2022-10-17T11:01:49.170Z,31.80
2022-10-17T11:04:25.500Z,31.90
2022-10-17T11:07:06.180Z,31.70
2022-10-17T11:09:52.120Z,31.60
2022-10-17T11:12:19.068Z,31.60
2022-10-17T11:15:14.114Z,31.70
2022-10-17T11:18:02.186Z,30.90
2022-10-17T11:21:03.312Z,28.90
2022-10-17T11:23:38.459Z,27.40
2022-10-17T11:26:16.631Z,26.40
2022-10-17T11:28:46.613Z,25.70
2022-10-17T11:31:15.812Z,24.80
2022-10-17T11:33:42.751Z,24.60
2022-10-17T11:36:11.206Z,24.20
2022-10-17T11:38:52.601Z,23.90
2022-10-17T11:41:37.994Z,23.50
2022-10-17T11:44:34.069Z,22.90
2022-10-17T11:47:39.458Z,22.70
2022-10-17T11:53:26.020Z,22.30
2022-10-17T11:55:54.568Z,22.10
2022-10-17T11:58:39.090Z,21.90
2022-10-17T12:01:21.365Z,22.00
2022-10-17T12:04:31.876Z,21.90
2022-10-17T12:07:32.359Z,21.80
2022-10-17T12:10:18.590Z,21.80
2022-10-17T12:12:45.878Z,21.80
2022-10-17T12:15:13.063Z,21.70
2022-10-17T12:18:05.720Z,21.70
2022-10-17T12:20:35.368Z,21.70
2022-10-17T12:23:11.901Z,21.60
2022-10-17T12:25:55.967Z,21.70
2022-10-17T12:28:33.779Z,21.70
2022-10-17T12:31:07.300Z,21.70
2022-10-17T12:33:35.925Z,21.70
2022-10-17T12:36:19.257Z,21.70
2022-10-17T12:38:51.882Z,21.70
2022-10-17T12:41:37.751Z,21.70
2022-10-17T12:44:14.458Z,21.60
2022-10-17T12:46:48.349Z,21.60
2022-10-17T12:50:04.554Z,21.50
2022-10-17T12:52:31.894Z,21.50
2022-10-17T12:55:14.574Z,21.50
2022-10-17T12:58:03.857Z,21.50
2022-10-17T13:03:45.469Z,21.50
2022-10-17T13:06:21.763Z,21.50
2022-10-17T13:09:03.320Z,21.50
2022-10-17T13:11:35.102Z,21.50
2022-10-17T13:14:12.286Z,21.50
2022-10-17T13:16:50.508Z,21.50
2022-10-17T13:19:23.014Z,21.50
2022-10-17T13:21:55.134Z,21.50
2022-10-17T13:24:30.169Z,21.50
2022-10-17T13:26:57.545Z,21.50
2022-10-17T13:29:25.793Z,21.40
2022-10-17T13:31:59.411Z,21.40
2022-10-17T13:34:27.690Z,21.40
2022-10-17T13:37:01.605Z,21.40
2022-10-17T13:39:52.316Z,21.30
2022-10-17T13:42:37.011Z,21.30
2022-10-17T13:45:12.627Z,21.20
2022-10-17T13:47:40.235Z,21.20
2022-10-17T13:50:26.428Z,21.10
2022-10-17T13:53:18.102Z,21.10
2022-10-17T13:56:09.443Z,21.10
2022-10-17T13:58:43.695Z,21.00
2022-10-17T14:01:13.377Z,21.00
2022-10-17T14:03:48.973Z,20.90
2022-10-17T14:06:23.888Z,20.90
2022-10-17T14:09:05.097Z,20.90
2022-10-17T14:11:42.505Z,20.80
2022-10-17T14:14:19.413Z,20.80
2022-10-17T14:16:48.137Z,20.70
2022-10-17T14:19:37.790Z,20.60
2022-10-17T14:22:22.074Z,20.60
2022-10-17T14:24:50.451Z,20.50
2022-10-17T14:27:33.449Z,20.50
2022-10-17T14:30:03.214Z,20.40
2022-10-17T14:32:36.315Z,20.40
2022-10-17T14:35:37.015Z,20.30
2022-10-17T14:38:03.197Z,20.30
2022-10-17T14:40:32.435Z,20.30
2022-10-17T14:43:04.943Z,20.20
2022-10-17T14:45:38.103Z,20.20
2022-10-17T14:48:21.559Z,20.10
2022-10-17T14:51:08.261Z,20.10
2022-10-17T14:53:36.473Z,20.00
2022-10-17T14:56:22.483Z,19.90
2022-10-17T14:58:49.870Z,19.90
2022-10-17T15:01:16.869Z,19.90
2022-10-17T15:03:44.583Z,19.80
2022-10-17T15:06:23.410Z,19.70
2022-10-17T15:08:50.970Z,19.70
2022-10-17T15:11:18.378Z,19.70
2022-10-17T15:13:48.075Z,19.70
2022-10-17T15:16:19.813Z,19.60
2022-10-17T15:18:48.146Z,19.60
2022-10-17T15:21:26.278Z,19.50
2022-10-17T15:24:06.789Z,19.40
2022-10-17T15:26:34.845Z,19.40
2022-10-17T15:29:02.444Z,19.40
2022-10-17T15:31:32.299Z,19.30
2022-10-17T15:33:59.791Z,19.30
2022-10-17T15:36:30.915Z,19.20
2022-10-17T15:39:00.796Z,19.20
2022-10-17T15:41:29.908Z,19.10
2022-10-17T15:43:59.123Z,19.00
2022-10-17T15:46:32.719Z,18.90
2022-10-17T15:49:05.436Z,18.90
2022-10-17T15:51:32.864Z,18.90
2022-10-17T15:54:00.264Z,18.80
2022-10-17T15:56:30.900Z,18.80
2022-10-17T15:58:58.494Z,18.70
2022-10-17T16:01:29.696Z,18.70
2022-10-17T16:03:57.341Z,18.70
2022-10-17T16:06:25.188Z,18.60
2022-10-17T16:08:53.293Z,18.60
2022-10-17T16:11:29.004Z,18.60
2022-10-17T16:14:00.332Z,18.50
2022-10-17T16:16:28.365Z,18.40
2022-10-17T16:18:55.821Z,18.40
2022-10-17T16:21:27.135Z,18.40
2022-10-17T16:23:57.696Z,18.40
2022-10-17T16:26:25.355Z,18.30
2022-10-17T16:28:52.885Z,18.30
2022-10-17T16:31:25.777Z,18.30
2022-10-17T16:33:54.200Z,18.30
2022-10-17T16:36:24.248Z,18.30
2022-10-17T16:38:52.017Z,18.30
2022-10-17T16:41:26.797Z,18.30
2022-10-17T16:43:55.881Z,18.20
2022-10-17T16:46:24.188Z,18.30
2022-10-17T16:48:52.170Z,18.30
2022-10-17T16:51:20.250Z,18.20
2022-10-17T16:53:52.718Z,18.20
2022-10-17T16:56:22.330Z,18.20
2022-10-17T16:58:50.686Z,18.20
2022-10-17T17:01:23.741Z,18.20
2022-10-17T17:03:52.740Z,18.20
2022-10-17T17:06:26.258Z,18.10
2022-10-17T17:08:57.096Z,18.20
2022-10-17T17:11:26.192Z,18.20
2022-10-17T17:13:56.876Z,18.10
2022-10-17T17:16:26.514Z,18.10
2022-10-17T17:18:55.868Z,18.10
2022-10-17T17:21:23.792Z,18.00
2022-10-17T17:23:51.352Z,18.00
2022-10-17T17:26:22.266Z,18.00
2022-10-17T17:28:50.208Z,18.00
2022-10-17T17:31:22.732Z,18.00
2022-10-17T17:33:52.010Z,17.90
2022-10-17T17:36:24.952Z,17.90
2022-10-17T17:38:55.938Z,17.90
2022-10-17T17:41:23.599Z,17.80
2022-10-17T17:43:51.893Z,17.80
2022-10-17T17:46:21.302Z,17.80
2022-10-17T17:48:49.878Z,17.80
2022-10-17T17:51:20.682Z,17.80
2022-10-17T17:53:48.939Z,17.80
2022-10-17T17:56:19.645Z,17.70
2022-10-17T17:58:48.558Z,17.70
2022-10-17T18:01:20.420Z,17.70
2022-10-17T18:03:49.864Z,17.70
2022-10-17T18:06:18.900Z,17.70
2022-10-17T18:08:49.543Z,17.60
2022-10-17T18:11:21.977Z,17.60
2022-10-17T18:14:01.011Z,17.60
2022-10-17T18:16:29.869Z,17.60
2022-10-17T18:19:01.479Z,17.60
2022-10-17T18:21:31.920Z,17.60
2022-10-17T18:23:59.330Z,17.60
2022-10-17T18:26:26.839Z,17.60
2022-10-17T18:28:54.669Z,17.60
2022-10-17T18:31:23.576Z,17.60
2022-10-17T18:33:55.283Z,17.60
2022-10-17T18:36:23.462Z,17.60
2022-10-17T18:38:50.844Z,17.60
2022-10-17T18:41:20.518Z,17.60
2022-10-17T18:43:49.456Z,17.60
2022-10-17T18:46:28.309Z,17.60
2022-10-17T18:48:58.276Z,17.60
2022-10-17T18:51:26.068Z,17.60
2022-10-17T18:53:59.713Z,17.50
2022-10-17T18:56:27.202Z,17.60
2022-10-17T18:58:55.178Z,17.60
2022-10-17T19:01:25.776Z,17.50
2022-10-17T19:03:56.024Z,17.50
2022-10-17T19:06:27.601Z,17.50
2022-10-17T19:08:55.189Z,17.50
2022-10-17T19:11:25.613Z,17.50
2022-10-17T19:13:53.608Z,17.40
2022-10-17T19:16:23.249Z,17.40
2022-10-17T19:18:54.541Z,17.40
2022-10-17T19:21:22.537Z,17.30
2022-10-17T19:23:58.404Z,17.30
2022-10-17T19:26:28.487Z,17.20
2022-10-17T19:28:56.279Z,17.20
2022-10-17T19:31:27.563Z,17.20
2022-10-17T19:33:56.501Z,17.10
2022-10-17T19:36:30.421Z,17.10
2022-10-17T19:39:05.073Z,17.10
2022-10-17T19:41:32.773Z,17.10
2022-10-17T19:44:00.519Z,17.10
2022-10-17T19:46:29.601Z,17.10
2022-10-17T19:48:57.432Z,17.00
2022-10-17T19:51:26.196Z,17.10
2022-10-17T19:53:56.038Z,17.10
2022-10-17T19:56:25.082Z,17.10
2022-10-17T19:58:58.134Z,17.00
2022-10-17T20:01:29.340Z,17.00
2022-10-17T20:03:57.110Z,17.00
2022-10-17T20:06:24.536Z,17.00
2022-10-17T20:08:52.357Z,17.00
2022-10-17T20:11:22.668Z,16.90
2022-10-17T20:13:50.818Z,16.90
2022-10-17T20:16:25.888Z,16.90
2022-10-17T20:18:55.677Z,16.90
2022-10-17T20:21:25.731Z,16.90
2022-10-17T20:23:53.937Z,16.90
2022-10-17T20:26:37.527Z,16.80
2022-10-17T20:29:14.304Z,16.80
2022-10-17T20:31:44.202Z,16.80
2022-10-17T20:34:14.244Z,16.80
2022-10-17T20:36:41.798Z,16.70
2022-10-17T20:39:10.947Z,16.60
2022-10-17T20:41:38.245Z,16.60
2022-10-17T20:44:10.980Z,16.60
2022-10-17T20:46:44.681Z,16.60
2022-10-17T20:49:18.536Z,16.50
2022-10-17T20:51:46.825Z,16.50
2022-10-17T20:54:14.340Z,16.40
2022-10-17T20:56:41.732Z,16.50
2022-10-17T20:59:14.411Z,16.40
2022-10-17T21:01:42.239Z,16.50
2022-10-17T21:04:44.918Z,16.50
2022-10-17T21:07:02.005Z,16.50
2022-10-17T21:09:29.718Z,16.50
2022-10-17T21:11:57.025Z,16.40
2022-10-17T21:14:25.457Z,16.40
2022-10-17T21:16:54.854Z,16.50
2022-10-17T21:19:22.311Z,16.60
2022-10-17T21:21:49.988Z,16.60
2022-10-17T21:24:19.944Z,16.60
2022-10-17T21:26:48.835Z,16.60
2022-10-17T21:29:18.427Z,16.60
2022-10-17T21:31:45.640Z,16.60
2022-10-17T21:34:18.293Z,16.60
2022-10-17T21:36:48.570Z,16.50
2022-10-17T21:39:16.900Z,16.50
2022-10-17T21:41:44.854Z,16.40
2022-10-17T21:44:14.989Z,16.40
2022-10-17T21:46:42.982Z,16.30
2022-10-17T21:49:12.640Z,16.20
2022-10-17T21:51:40.385Z,16.20
2022-10-17T21:54:08.112Z,16.10
2022-10-17T21:56:35.666Z,16.10
2022-10-17T21:59:04.054Z,16.00
2022-10-17T22:01:34.914Z,16.00
2022-10-17T22:04:04.562Z,16.00
2022-10-17T22:06:39.739Z,15.90
2022-10-17T22:09:13.402Z,15.90
2022-10-17T22:11:40.934Z,15.90
2022-10-17T22:14:18.490Z,15.80
2022-10-17T22:16:47.183Z,15.80
2022-10-17T22:19:17.606Z,15.80
2022-10-17T22:21:45.398Z,15.80
2022-10-17T22:24:14.909Z,15.70
2022-10-17T22:26:43.453Z,15.80
2022-10-17T22:29:11.359Z,15.70
2022-10-17T22:31:39.583Z,15.70
2022-10-17T22:34:07.992Z,15.70
2022-10-17T22:36:35.852Z,15.70
2022-10-17T22:39:03.994Z,15.80
2022-10-17T22:41:31.437Z,15.70
2022-10-17T22:43:58.982Z,15.70
2022-10-17T22:46:26.364Z,15.70
2022-10-17T22:48:53.871Z,15.70
2022-10-17T22:51:21.189Z,15.60
2022-10-17T22:53:48.721Z,15.60
2022-10-17T22:56:18.775Z,15.60
2022-10-17T22:58:46.527Z,15.60
2022-10-17T23:01:17.278Z,15.60
2022-10-17T23:03:45.062Z,15.70
2022-10-17T23:06:14.505Z,15.60
2022-10-17T23:08:43.497Z,15.60
2022-10-17T23:11:13.255Z,15.60
2022-10-17T23:13:40.826Z,15.70
2022-10-17T23:16:08.840Z,15.70
2022-10-17T23:18:37.833Z,15.70
2022-10-17T23:21:05.456Z,15.70
2022-10-17T23:23:33.324Z,15.80
2022-10-17T23:26:09.384Z,15.80
2022-10-17T23:28:37.302Z,15.90
2022-10-17T23:31:19.129Z,16.00
2022-10-17T23:33:47.876Z,16.00
2022-10-17T23:36:19.014Z,15.90
2022-10-17T23:38:47.922Z,15.90
2022-10-17T23:41:15.200Z,15.90
2022-10-17T23:43:43.017Z,15.90
2022-10-17T23:46:10.551Z,15.80
2022-10-17T23:48:38.715Z,15.80
2022-10-17T23:51:07.390Z,15.80
2022-10-17T23:53:35.990Z,15.70
2022-10-17T23:56:06.723Z,15.70
2022-10-17T23:58:34.667Z,15.70
